sensor_id;sensor_type;location;lat;lon;timestamp;P1;durP1;ratioP1;P2;durP2;ratioP2
43650;SDS011;29247;50.944;5.382;2023-07-13T00:02:02;4.07;;;0.93;;
43650;SDS011;29247;50.944;5.382;2023-07-13T00:04:28;3.90;;;0.77;;
43650;SDS011;29247;50.944;5.382;2023-07-13T00:06:54;6.28;;;0.80;;
43650;SDS011;29247;50.944;5.382;2023-07-13T00:09:19;1.77;;;0.55;;
43650;SDS011;29247;50.944;5.382;2023-07-13T00:11:50;4.03;;;0.80;;
43650;SDS011;29247;50.944;5.382;2023-07-13T00:14:17;1.27;;;0.75;;
43650;SDS011;29247;50.944;5.382;2023-07-13T00:16:43;2.60;;;0.70;;
43650;SDS011;29247;50.944;5.382;2023-07-13T00:19:11;3.67;;;0.73;;
43650;SDS011;29247;50.944;5.382;2023-07-13T00:21:40;2.63;;;0.80;;
43650;SDS011;29247;50.944;5.382;2023-07-13T00:24:07;3.58;;;1.10;;
43650;SDS011;29247;50.944;5.382;2023-07-13T00:26:37;3.33;;;1.05;;
43650;SDS011;29247;50.944;5.382;2023-07-13T00:29:06;2.22;;;0.80;;
43650;SDS011;29247;50.944;5.382;2023-07-13T00:31:33;2.47;;;1.20;;
43650;SDS011;29247;50.944;5.382;2023-07-13T00:34:00;2.22;;;0.90;;
43650;SDS011;29247;50.944;5.382;2023-07-13T00:36:29;5.80;;;0.93;;
43650;SDS011;29247;50.944;5.382;2023-07-13T00:38:55;2.28;;;0.88;;
43650;SDS011;29247;50.944;5.382;2023-07-13T00:41:23;1.98;;;0.88;;
43650;SDS011;29247;50.944;5.382;2023-07-13T00:43:49;5.22;;;1.27;;
43650;SDS011;29247;50.944;5.382;2023-07-13T00:48:54;6.03;;;0.80;;
43650;SDS011;29247;50.944;5.382;2023-07-13T00:51:26;2.00;;;1.00;;
43650;SDS011;29247;50.944;5.382;2023-07-13T00:53:56;3.28;;;0.90;;
43650;SDS011;29247;50.944;5.382;2023-07-13T00:56:24;3.47;;;0.90;;
43650;SDS011;29247;50.944;5.382;2023-07-13T00:58:50;3.85;;;1.10;;
43650;SDS011;29247;50.944;5.382;2023-07-13T01:01:18;8.95;;;1.02;;
43650;SDS011;29247;50.944;5.382;2023-07-13T01:03:43;3.53;;;1.02;;
43650;SDS011;29247;50.944;5.382;2023-07-13T01:06:09;4.68;;;1.80;;
43650;SDS011;29247;50.944;5.382;2023-07-13T01:08:38;3.17;;;1.20;;
43650;SDS011;29247;50.944;5.382;2023-07-13T01:11:05;2.22;;;0.90;;
43650;SDS011;29247;50.944;5.382;2023-07-13T01:13:33;2.92;;;1.00;;
43650;SDS011;29247;50.944;5.382;2023-07-13T01:16:00;2.60;;;0.90;;
43650;SDS011;29247;50.944;5.382;2023-07-13T01:18:29;2.80;;;0.80;;
43650;SDS011;29247;50.944;5.382;2023-07-13T01:21:02;3.40;;;1.08;;
43650;SDS011;29247;50.944;5.382;2023-07-13T01:23:32;6.80;;;0.90;;
43650;SDS011;29247;50.944;5.382;2023-07-13T01:25:58;1.50;;;0.73;;
43650;SDS011;29247;50.944;5.382;2023-07-13T01:28:25;3.08;;;0.90;;
43650;SDS011;29247;50.944;5.382;2023-07-13T01:30:52;3.88;;;0.80;;
43650;SDS011;29247;50.944;5.382;2023-07-13T01:33:19;3.50;;;1.00;;
43650;SDS011;29247;50.944;5.382;2023-07-13T01:35:47;6.43;;;1.05;;
43650;SDS011;29247;50.944;5.382;2023-07-13T01:38:13;2.70;;;0.98;;
43650;SDS011;29247;50.944;5.382;2023-07-13T01:40:42;2.53;;;0.93;;
43650;SDS011;29247;50.944;5.382;2023-07-13T01:43:09;4.72;;;1.00;;
43650;SDS011;29247;50.944;5.382;2023-07-13T01:45:38;4.45;;;1.20;;
43650;SDS011;29247;50.944;5.382;2023-07-13T01:48:03;3.17;;;0.90;;
43650;SDS011;29247;50.944;5.382;2023-07-13T01:50:31;4.55;;;1.00;;
43650;SDS011;29247;50.944;5.382;2023-07-13T01:52:58;4.82;;;1.02;;
43650;SDS011;29247;50.944;5.382;2023-07-13T01:55:23;3.00;;;0.85;;
43650;SDS011;29247;50.944;5.382;2023-07-13T01:57:49;6.07;;;1.20;;
43650;SDS011;29247;50.944;5.382;2023-07-13T02:00:15;5.80;;;1.23;;
43650;SDS011;29247;50.944;5.382;2023-07-13T02:02:41;4.53;;;1.13;;
43650;SDS011;29247;50.944;5.382;2023-07-13T02:05:07;2.70;;;0.90;;
43650;SDS011;29247;50.944;5.382;2023-07-13T02:07:35;4.82;;;1.00;;
43650;SDS011;29247;50.944;5.382;2023-07-13T02:10:01;2.83;;;1.27;;
43650;SDS011;29247;50.944;5.382;2023-07-13T02:12:27;1.85;;;0.90;;
43650;SDS011;29247;50.944;5.382;2023-07-13T02:14:53;3.75;;;0.90;;
43650;SDS011;29247;50.944;5.382;2023-07-13T02:17:18;5.45;;;1.25;;
43650;SDS011;29247;50.944;5.382;2023-07-13T02:19:44;5.70;;;1.05;;
43650;SDS011;29247;50.944;5.382;2023-07-13T02:22:12;4.55;;;0.98;;
43650;SDS011;29247;50.944;5.382;2023-07-13T02:24:37;3.25;;;0.90;;
43650;SDS011;29247;50.944;5.382;2023-07-13T02:27:03;5.13;;;1.80;;
43650;SDS011;29247;50.944;5.382;2023-07-13T02:29:29;3.10;;;0.90;;
43650;SDS011;29247;50.944;5.382;2023-07-13T02:31:57;2.55;;;1.02;;
43650;SDS011;29247;50.944;5.382;2023-07-13T02:34:27;4.25;;;0.93;;
43650;SDS011;29247;50.944;5.382;2023-07-13T02:36:53;4.28;;;1.00;;
43650;SDS011;29247;50.944;5.382;2023-07-13T02:39:19;2.63;;;0.93;;
43650;SDS011;29247;50.944;5.382;2023-07-13T02:41:44;4.32;;;1.20;;
43650;SDS011;29247;50.944;5.382;2023-07-13T02:44:12;5.30;;;1.15;;
43650;SDS011;29247;50.944;5.382;2023-07-13T02:46:38;5.18;;;1.17;;
43650;SDS011;29247;50.944;5.382;2023-07-13T02:49:04;3.90;;;0.93;;
43650;SDS011;29247;50.944;5.382;2023-07-13T02:51:30;4.13;;;1.10;;
43650;SDS011;29247;50.944;5.382;2023-07-13T02:54:01;6.53;;;1.30;;
43650;SDS011;29247;50.944;5.382;2023-07-13T02:56:28;3.78;;;1.20;;
43650;SDS011;29247;50.944;5.382;2023-07-13T02:59:00;1.92;;;1.00;;
43650;SDS011;29247;50.944;5.382;2023-07-13T03:01:30;1.83;;;0.80;;
43650;SDS011;29247;50.944;5.382;2023-07-13T03:03:59;6.18;;;1.02;;
43650;SDS011;29247;50.944;5.382;2023-07-13T03:06:28;3.53;;;0.95;;
43650;SDS011;29247;50.944;5.382;2023-07-13T03:08:55;4.03;;;1.05;;
43650;SDS011;29247;50.944;5.382;2023-07-13T03:11:23;7.03;;;2.00;;
43650;SDS011;29247;50.944;5.382;2023-07-13T03:13:49;4.78;;;1.13;;
43650;SDS011;29247;50.944;5.382;2023-07-13T03:16:18;7.20;;;1.05;;
43650;SDS011;29247;50.944;5.382;2023-07-13T03:18:43;3.92;;;1.10;;
43650;SDS011;29247;50.944;5.382;2023-07-13T03:21:16;3.85;;;0.95;;
43650;SDS011;29247;50.944;5.382;2023-07-13T03:23:42;4.07;;;0.90;;
43650;SDS011;29247;50.944;5.382;2023-07-13T03:26:11;4.05;;;1.05;;
43650;SDS011;29247;50.944;5.382;2023-07-13T03:28:41;3.47;;;1.25;;
43650;SDS011;29247;50.944;5.382;2023-07-13T03:31:13;3.30;;;1.00;;
43650;SDS011;29247;50.944;5.382;2023-07-13T03:33:46;4.78;;;1.20;;
43650;SDS011;29247;50.944;5.382;2023-07-13T03:36:17;2.63;;;0.90;;
43650;SDS011;29247;50.944;5.382;2023-07-13T03:38:48;3.22;;;1.20;;
43650;SDS011;29247;50.944;5.382;2023-07-13T03:41:21;9.23;;;1.10;;
43650;SDS011;29247;50.944;5.382;2023-07-13T03:43:47;5.22;;;1.00;;
43650;SDS011;29247;50.944;5.382;2023-07-13T03:46:16;4.82;;;1.33;;
43650;SDS011;29247;50.944;5.382;2023-07-13T03:48:43;3.70;;;1.08;;
43650;SDS011;29247;50.944;5.382;2023-07-13T03:51:15;3.22;;;1.80;;
43650;SDS011;29247;50.944;5.382;2023-07-13T03:53:44;4.43;;;1.65;;
43650;SDS011;29247;50.944;5.382;2023-07-13T03:56:11;5.63;;;1.33;;
43650;SDS011;29247;50.944;5.382;2023-07-13T03:58:40;7.05;;;1.45;;
43650;SDS011;29247;50.944;5.382;2023-07-13T04:01:10;7.97;;;1.40;;
43650;SDS011;29247;50.944;5.382;2023-07-13T04:03:36;7.93;;;1.05;;
43650;SDS011;29247;50.944;5.382;2023-07-13T04:06:05;6.10;;;1.20;;
43650;SDS011;29247;50.944;5.382;2023-07-13T04:08:33;3.50;;;1.10;;
43650;SDS011;29247;50.944;5.382;2023-07-13T04:11:03;2.63;;;1.13;;
43650;SDS011;29247;50.944;5.382;2023-07-13T04:13:29;6.45;;;1.13;;
43650;SDS011;29247;50.944;5.382;2023-07-13T04:15:55;5.28;;;1.27;;
43650;SDS011;29247;50.944;5.382;2023-07-13T04:18:20;2.90;;;1.42;;
43650;SDS011;29247;50.944;5.382;2023-07-13T04:20:49;5.40;;;1.17;;
43650;SDS011;29247;50.944;5.382;2023-07-13T04:23:18;2.92;;;1.05;;
43650;SDS011;29247;50.944;5.382;2023-07-13T04:25:45;2.50;;;1.10;;
43650;SDS011;29247;50.944;5.382;2023-07-13T04:28:11;3.75;;;1.35;;
43650;SDS011;29247;50.944;5.382;2023-07-13T04:30:37;4.10;;;1.42;;
43650;SDS011;29247;50.944;5.382;2023-07-13T04:33:05;3.17;;;1.33;;
43650;SDS011;29247;50.944;5.382;2023-07-13T04:35:33;4.22;;;1.35;;
43650;SDS011;29247;50.944;5.382;2023-07-13T04:38:00;6.45;;;1.38;;
43650;SDS011;29247;50.944;5.382;2023-07-13T04:40:26;10.35;;;2.22;;
43650;SDS011;29247;50.944;5.382;2023-07-13T04:42:54;4.00;;;1.55;;
43650;SDS011;29247;50.944;5.382;2023-07-13T04:45:21;6.07;;;1.15;;
43650;SDS011;29247;50.944;5.382;2023-07-13T04:47:49;6.65;;;1.77;;
43650;SDS011;29247;50.944;5.382;2023-07-13T04:50:14;6.35;;;1.42;;
43650;SDS011;29247;50.944;5.382;2023-07-13T04:52:46;8.43;;;1.48;;
43650;SDS011;29247;50.944;5.382;2023-07-13T04:55:12;6.38;;;1.60;;
43650;SDS011;29247;50.944;5.382;2023-07-13T04:57:37;2.97;;;1.20;;
43650;SDS011;29247;50.944;5.382;2023-07-13T05:00:06;6.07;;;1.55;;
43650;SDS011;29247;50.944;5.382;2023-07-13T05:02:33;3.15;;;1.33;;
43650;SDS011;29247;50.944;5.382;2023-07-13T05:04:59;3.92;;;1.92;;
43650;SDS011;29247;50.944;5.382;2023-07-13T05:07:25;5.13;;;1.63;;
43650;SDS011;29247;50.944;5.382;2023-07-13T05:09:51;5.22;;;1.55;;
43650;SDS011;29247;50.944;5.382;2023-07-13T05:12:17;7.50;;;1.60;;
43650;SDS011;29247;50.944;5.382;2023-07-13T05:14:47;5.82;;;1.45;;
43650;SDS011;29247;50.944;5.382;2023-07-13T05:17:17;7.13;;;1.30;;
43650;SDS011;29247;50.944;5.382;2023-07-13T05:19:47;5.63;;;1.42;;
43650;SDS011;29247;50.944;5.382;2023-07-13T05:22:12;5.65;;;1.70;;
43650;SDS011;29247;50.944;5.382;2023-07-13T05:24:38;4.50;;;1.30;;
43650;SDS011;29247;50.944;5.382;2023-07-13T05:27:06;5.35;;;1.50;;
43650;SDS011;29247;50.944;5.382;2023-07-13T05:29:34;5.55;;;1.40;;
43650;SDS011;29247;50.944;5.382;2023-07-13T05:31:59;6.63;;;1.50;;
43650;SDS011;29247;50.944;5.382;2023-07-13T05:34:25;5.93;;;1.08;;
43650;SDS011;29247;50.944;5.382;2023-07-13T05:36:56;6.05;;;1.85;;
43650;SDS011;29247;50.944;5.382;2023-07-13T05:41:51;7.60;;;1.50;;
43650;SDS011;29247;50.944;5.382;2023-07-13T05:44:16;9.60;;;2.10;;
43650;SDS011;29247;50.944;5.382;2023-07-13T05:46:43;6.65;;;1.52;;
43650;SDS011;29247;50.944;5.382;2023-07-13T05:49:09;9.18;;;1.60;;
43650;SDS011;29247;50.944;5.382;2023-07-13T05:51:37;4.97;;;1.50;;
43650;SDS011;29247;50.944;5.382;2023-07-13T05:54:05;4.18;;;1.15;;
43650;SDS011;29247;50.944;5.382;2023-07-13T05:56:30;5.68;;;1.67;;
43650;SDS011;29247;50.944;5.382;2023-07-13T05:58:56;7.95;;;1.50;;
43650;SDS011;29247;50.944;5.382;2023-07-13T06:01:22;4.93;;;1.70;;
43650;SDS011;29247;50.944;5.382;2023-07-13T06:03:48;8.50;;;1.50;;
43650;SDS011;29247;50.944;5.382;2023-07-13T06:06:19;9.25;;;1.65;;
43650;SDS011;29247;50.944;5.382;2023-07-13T06:08:47;5.70;;;1.35;;
43650;SDS011;29247;50.944;5.382;2023-07-13T06:11:15;5.72;;;1.65;;
43650;SDS011;29247;50.944;5.382;2023-07-13T06:13:43;4.10;;;1.35;;
43650;SDS011;29247;50.944;5.382;2023-07-13T06:16:09;5.25;;;1.75;;
43650;SDS011;29247;50.944;5.382;2023-07-13T06:18:36;4.05;;;1.38;;
43650;SDS011;29247;50.944;5.382;2023-07-13T06:21:12;7.43;;;1.65;;
43650;SDS011;29247;50.944;5.382;2023-07-13T06:26:09;4.40;;;1.30;;
43650;SDS011;29247;50.944;5.382;2023-07-13T06:28:35;5.72;;;2.38;;
43650;SDS011;29247;50.944;5.382;2023-07-13T06:31:01;8.75;;;1.52;;
43650;SDS011;29247;50.944;5.382;2023-07-13T06:33:29;4.68;;;1.85;;
43650;SDS011;29247;50.944;5.382;2023-07-13T06:35:55;6.53;;;1.83;;
43650;SDS011;29247;50.944;5.382;2023-07-13T06:38:23;4.82;;;1.33;;
43650;SDS011;29247;50.944;5.382;2023-07-13T06:40:51;6.80;;;1.80;;
43650;SDS011;29247;50.944;5.382;2023-07-13T06:43:17;6.88;;;1.90;;
43650;SDS011;29247;50.944;5.382;2023-07-13T06:45:44;8.40;;;2.25;;
43650;SDS011;29247;50.944;5.382;2023-07-13T06:48:12;10.63;;;1.70;;
43650;SDS011;29247;50.944;5.382;2023-07-13T06:50:38;6.22;;;1.90;;
43650;SDS011;29247;50.944;5.382;2023-07-13T06:53:04;5.75;;;1.65;;
43650;SDS011;29247;50.944;5.382;2023-07-13T06:55:29;7.82;;;2.20;;
43650;SDS011;29247;50.944;5.382;2023-07-13T06:57:55;10.35;;;1.60;;
43650;SDS011;29247;50.944;5.382;2023-07-13T07:00:23;7.57;;;1.45;;
43650;SDS011;29247;50.944;5.382;2023-07-13T07:02:53;6.95;;;2.40;;
43650;SDS011;29247;50.944;5.382;2023-07-13T07:05:19;6.45;;;1.90;;
43650;SDS011;29247;50.944;5.382;2023-07-13T07:07:47;6.53;;;1.45;;
43650;SDS011;29247;50.944;5.382;2023-07-13T07:10:13;6.13;;;1.70;;
43650;SDS011;29247;50.944;5.382;2023-07-13T07:12:41;5.38;;;2.45;;
43650;SDS011;29247;50.944;5.382;2023-07-13T07:15:09;4.68;;;1.67;;
43650;SDS011;29247;50.944;5.382;2023-07-13T07:17:37;5.60;;;1.50;;
43650;SDS011;29247;50.944;5.382;2023-07-13T07:20:07;3.70;;;1.50;;
43650;SDS011;29247;50.944;5.382;2023-07-13T07:22:36;9.40;;;1.92;;
43650;SDS011;29247;50.944;5.382;2023-07-13T07:25:06;5.72;;;1.65;;
43650;SDS011;29247;50.944;5.382;2023-07-13T07:27:32;7.93;;;1.83;;
43650;SDS011;29247;50.944;5.382;2023-07-13T07:29:58;8.63;;;1.58;;
43650;SDS011;29247;50.944;5.382;2023-07-13T07:32:24;6.93;;;1.77;;
43650;SDS011;29247;50.944;5.382;2023-07-13T07:34:51;10.50;;;2.13;;
43650;SDS011;29247;50.944;5.382;2023-07-13T07:37:19;9.73;;;1.60;;
43650;SDS011;29247;50.944;5.382;2023-07-13T07:39:45;6.85;;;1.80;;
43650;SDS011;29247;50.944;5.382;2023-07-13T07:42:10;7.72;;;1.88;;
43650;SDS011;29247;50.944;5.382;2023-07-13T07:44:39;5.97;;;1.70;;
43650;SDS011;29247;50.944;5.382;2023-07-13T07:47:06;7.28;;;1.50;;
43650;SDS011;29247;50.944;5.382;2023-07-13T07:49:32;6.55;;;1.60;;
43650;SDS011;29247;50.944;5.382;2023-07-13T07:52:00;5.60;;;1.67;;
43650;SDS011;29247;50.944;5.382;2023-07-13T07:54:26;8.40;;;1.60;;
43650;SDS011;29247;50.944;5.382;2023-07-13T07:56:52;8.45;;;1.77;;
43650;SDS011;29247;50.944;5.382;2023-07-13T07:59:18;9.90;;;1.60;;
43650;SDS011;29247;50.944;5.382;2023-07-13T08:01:46;5.57;;;1.52;;
43650;SDS011;29247;50.944;5.382;2023-07-13T08:04:15;11.23;;;1.80;;
43650;SDS011;29247;50.944;5.382;2023-07-13T08:06:41;8.35;;;1.95;;
43650;SDS011;29247;50.944;5.382;2023-07-13T08:09:07;6.80;;;1.80;;
43650;SDS011;29247;50.944;5.382;2023-07-13T08:11:34;5.35;;;1.83;;
43650;SDS011;29247;50.944;5.382;2023-07-13T08:14:00;8.32;;;2.08;;
43650;SDS011;29247;50.944;5.382;2023-07-13T08:16:28;10.82;;;1.45;;
43650;SDS011;29247;50.944;5.382;2023-07-13T08:18:54;6.35;;;1.98;;
43650;SDS011;29247;50.944;5.382;2023-07-13T08:21:19;6.03;;;1.65;;
43650;SDS011;29247;50.944;5.382;2023-07-13T08:23:47;7.13;;;2.00;;
43650;SDS011;29247;50.944;5.382;2023-07-13T08:26:16;6.85;;;2.42;;
43650;SDS011;29247;50.944;5.382;2023-07-13T08:28:42;6.55;;;1.50;;
43650;SDS011;29247;50.944;5.382;2023-07-13T08:31:08;8.13;;;1.92;;
43650;SDS011;29247;50.944;5.382;2023-07-13T08:33:37;8.75;;;1.70;;
43650;SDS011;29247;50.944;5.382;2023-07-13T08:36:03;7.82;;;1.75;;
43650;SDS011;29247;50.944;5.382;2023-07-13T08:38:30;6.63;;;1.67;;
43650;SDS011;29247;50.944;5.382;2023-07-13T08:40:56;10.18;;;2.00;;
43650;SDS011;29247;50.944;5.382;2023-07-13T08:43:26;7.47;;;1.60;;
43650;SDS011;29247;50.944;5.382;2023-07-13T08:46:03;5.57;;;1.42;;
43650;SDS011;29247;50.944;5.382;2023-07-13T08:48:41;5.88;;;1.60;;
43650;SDS011;29247;50.944;5.382;2023-07-13T08:53:58;7.28;;;2.53;;
43650;SDS011;29247;50.944;5.382;2023-07-13T08:56:40;5.35;;;1.50;;
43650;SDS011;29247;50.944;5.382;2023-07-13T08:59:09;6.68;;;2.30;;
43650;SDS011;29247;50.944;5.382;2023-07-13T09:04:37;4.75;;;1.23;;
43650;SDS011;29247;50.944;5.382;2023-07-13T09:15:31;4.30;;;1.42;;
43650;SDS011;29247;50.944;5.382;2023-07-13T09:18:08;9.75;;;1.90;;
43650;SDS011;29247;50.944;5.382;2023-07-13T09:20:42;3.78;;;1.40;;
43650;SDS011;29247;50.944;5.382;2023-07-13T09:23:20;6.38;;;1.33;;
43650;SDS011;29247;50.944;5.382;2023-07-13T09:25:49;3.42;;;1.48;;
43650;SDS011;29247;50.944;5.382;2023-07-13T09:28:25;5.15;;;1.65;;
43650;SDS011;29247;50.944;5.382;2023-07-13T09:30:58;9.20;;;1.50;;
43650;SDS011;29247;50.944;5.382;2023-07-13T09:33:29;3.40;;;0.95;;
43650;SDS011;29247;50.944;5.382;2023-07-13T09:35:56;6.45;;;1.45;;
43650;SDS011;29247;50.944;5.382;2023-07-13T09:38:26;6.60;;;1.63;;
43650;SDS011;29247;50.944;5.382;2023-07-13T09:46:36;6.72;;;1.20;;
43650;SDS011;29247;50.944;5.382;2023-07-13T09:49:04;2.67;;;1.27;;
43650;SDS011;29247;50.944;5.382;2023-07-13T09:51:30;4.55;;;1.50;;
43650;SDS011;29247;50.944;5.382;2023-07-13T09:53:58;4.15;;;1.30;;
43650;SDS011;29247;50.944;5.382;2023-07-13T09:56:25;5.22;;;1.88;;
43650;SDS011;29247;50.944;5.382;2023-07-13T09:58:59;5.25;;;1.50;;
43650;SDS011;29247;50.944;5.382;2023-07-13T10:01:58;6.43;;;1.83;;
43650;SDS011;29247;50.944;5.382;2023-07-13T10:04:18;5.75;;;1.73;;
43650;SDS011;29247;50.944;5.382;2023-07-13T10:06:47;7.03;;;1.67;;
43650;SDS011;29247;50.944;5.382;2023-07-13T10:09:18;1.70;;;1.10;;
43650;SDS011;29247;50.944;5.382;2023-07-13T10:11:46;5.88;;;1.30;;
43650;SDS011;29247;50.944;5.382;2023-07-13T10:14:17;4.20;;;1.40;;
43650;SDS011;29247;50.944;5.382;2023-07-13T10:16:50;6.38;;;1.30;;
43650;SDS011;29247;50.944;5.382;2023-07-13T10:19:27;3.28;;;1.15;;
43650;SDS011;29247;50.944;5.382;2023-07-13T10:22:05;1.58;;;1.13;;
43650;SDS011;29247;50.944;5.382;2023-07-13T10:24:52;3.50;;;1.20;;
43650;SDS011;29247;50.944;5.382;2023-07-13T10:27:20;2.08;;;0.95;;
43650;SDS011;29247;50.944;5.382;2023-07-13T10:30:02;4.15;;;1.10;;
43650;SDS011;29247;50.944;5.382;2023-07-13T10:32:38;5.88;;;1.35;;
43650;SDS011;29247;50.944;5.382;2023-07-13T10:35:05;4.05;;;1.00;;
43650;SDS011;29247;50.944;5.382;2023-07-13T10:37:43;4.50;;;0.90;;
43650;SDS011;29247;50.944;5.382;2023-07-13T10:40:20;5.72;;;1.30;;
43650;SDS011;29247;50.944;5.382;2023-07-13T10:42:51;4.45;;;1.15;;
43650;SDS011;29247;50.944;5.382;2023-07-13T10:45:22;2.97;;;1.30;;
43650;SDS011;29247;50.944;5.382;2023-07-13T10:47:49;2.97;;;1.23;;
43650;SDS011;29247;50.944;5.382;2023-07-13T10:50:28;4.95;;;1.20;;
43650;SDS011;29247;50.944;5.382;2023-07-13T10:53:18;2.53;;;1.15;;
43650;SDS011;29247;50.944;5.382;2023-07-13T10:58:19;5.70;;;1.13;;
43650;SDS011;29247;50.944;5.382;2023-07-13T11:00:47;4.18;;;1.30;;
43650;SDS011;29247;50.944;5.382;2023-07-13T11:03:28;3.28;;;1.10;;
43650;SDS011;29247;50.944;5.382;2023-07-13T11:06:07;3.15;;;1.05;;
43650;SDS011;29247;50.944;5.382;2023-07-13T11:11:02;4.70;;;1.83;;
43650;SDS011;29247;50.944;5.382;2023-07-13T11:13:38;6.30;;;1.38;;
43650;SDS011;29247;50.944;5.382;2023-07-13T11:18:51;3.80;;;1.20;;
43650;SDS011;29247;50.944;5.382;2023-07-13T11:21:26;6.35;;;0.90;;
43650;SDS011;29247;50.944;5.382;2023-07-13T11:24:13;5.50;;;1.10;;
43650;SDS011;29247;50.944;5.382;2023-07-13T11:31:58;5.68;;;1.20;;
43650;SDS011;29247;50.944;5.382;2023-07-13T11:36:57;3.95;;;0.93;;
43650;SDS011;29247;50.944;5.382;2023-07-13T11:39:27;6.03;;;0.82;;
43650;SDS011;29247;50.944;5.382;2023-07-13T11:42:02;4.05;;;1.10;;
43650;SDS011;29247;50.944;5.382;2023-07-13T11:44:41;4.07;;;1.08;;
43650;SDS011;29247;50.944;5.382;2023-07-13T11:47:16;3.38;;;1.00;;
43650;SDS011;29247;50.944;5.382;2023-07-13T11:49:48;4.20;;;1.42;;
43650;SDS011;29247;50.944;5.382;2023-07-13T11:52:17;3.28;;;1.20;;
43650;SDS011;29247;50.944;5.382;2023-07-13T11:54:47;3.53;;;1.13;;
43650;SDS011;29247;50.944;5.382;2023-07-13T11:59:49;4.15;;;1.20;;
43650;SDS011;29247;50.944;5.382;2023-07-13T12:02:21;2.47;;;1.00;;
43650;SDS011;29247;50.944;5.382;2023-07-13T12:05:02;2.28;;;1.20;;
43650;SDS011;29247;50.944;5.382;2023-07-13T12:07:30;5.70;;;1.20;;
43650;SDS011;29247;50.944;5.382;2023-07-13T12:13:03;5.70;;;1.02;;
43650;SDS011;29247;50.944;5.382;2023-07-13T12:15:40;2.03;;;1.10;;
43650;SDS011;29247;50.944;5.382;2023-07-13T12:18:11;1.63;;;0.90;;
43650;SDS011;29247;50.944;5.382;2023-07-13T12:20:39;6.88;;;1.02;;
43650;SDS011;29247;50.944;5.382;2023-07-13T12:23:05;1.98;;;0.98;;
43650;SDS011;29247;50.944;5.382;2023-07-13T12:25:40;4.03;;;1.10;;
43650;SDS011;29247;50.944;5.382;2023-07-13T12:36:50;3.80;;;0.90;;
43650;SDS011;29247;50.944;5.382;2023-07-13T12:42:27;3.05;;;1.00;;
43650;SDS011;29247;50.944;5.382;2023-07-13T12:44:56;5.45;;;1.08;;
43650;SDS011;29247;50.944;5.382;2023-07-13T12:47:43;4.38;;;1.00;;
43650;SDS011;29247;50.944;5.382;2023-07-13T12:52:50;2.25;;;1.13;;
43650;SDS011;29247;50.944;5.382;2023-07-13T12:55:18;3.33;;;1.20;;
43650;SDS011;29247;50.944;5.382;2023-07-13T12:57:49;5.57;;;1.15;;
43650;SDS011;29247;50.944;5.382;2023-07-13T13:00:21;1.10;;;0.88;;
43650;SDS011;29247;50.944;5.382;2023-07-13T13:02:54;2.85;;;1.27;;
43650;SDS011;29247;50.944;5.382;2023-07-13T13:05:26;3.78;;;1.27;;
43650;SDS011;29247;50.944;5.382;2023-07-13T13:07:52;1.52;;;0.80;;
43650;SDS011;29247;50.944;5.382;2023-07-13T13:10:18;2.15;;;0.85;;
43650;SDS011;29247;50.944;5.382;2023-07-13T13:12:43;2.13;;;0.80;;
43650;SDS011;29247;50.944;5.382;2023-07-13T13:15:11;1.92;;;1.00;;
43650;SDS011;29247;50.944;5.382;2023-07-13T13:17:41;2.15;;;0.95;;
43650;SDS011;29247;50.944;5.382;2023-07-13T13:20:17;1.45;;;0.88;;
43650;SDS011;29247;50.944;5.382;2023-07-13T13:22:45;1.98;;;1.00;;
43650;SDS011;29247;50.944;5.382;2023-07-13T13:25:14;3.88;;;1.00;;
43650;SDS011;29247;50.944;5.382;2023-07-13T13:27:40;1.08;;;0.90;;
43650;SDS011;29247;50.944;5.382;2023-07-13T13:30:18;3.17;;;0.88;;
43650;SDS011;29247;50.944;5.382;2023-07-13T13:32:47;3.67;;;1.00;;
43650;SDS011;29247;50.944;5.382;2023-07-13T13:35:19;2.30;;;1.88;;
43650;SDS011;29247;50.944;5.382;2023-07-13T13:37:46;4.80;;;1.10;;
43650;SDS011;29247;50.944;5.382;2023-07-13T13:40:13;2.92;;;0.90;;
43650;SDS011;29247;50.944;5.382;2023-07-13T13:42:41;2.88;;;0.90;;
43650;SDS011;29247;50.944;5.382;2023-07-13T13:45:08;6.05;;;1.00;;
43650;SDS011;29247;50.944;5.382;2023-07-13T13:47:34;2.38;;;1.00;;
43650;SDS011;29247;50.944;5.382;2023-07-13T13:50:02;2.17;;;1.00;;
43650;SDS011;29247;50.944;5.382;2023-07-13T13:52:39;3.88;;;1.25;;
43650;SDS011;29247;50.944;5.382;2023-07-13T13:55:15;1.27;;;0.93;;
43650;SDS011;29247;50.944;5.382;2023-07-13T13:57:51;1.80;;;1.20;;
43650;SDS011;29247;50.944;5.382;2023-07-13T14:00:17;4.85;;;1.00;;
43650;SDS011;29247;50.944;5.382;2023-07-13T14:02:44;1.15;;;0.70;;
43650;SDS011;29247;50.944;5.382;2023-07-13T14:05:19;2.95;;;0.93;;
43650;SDS011;29247;50.944;5.382;2023-07-13T14:07:47;2.53;;;1.00;;
43650;SDS011;29247;50.944;5.382;2023-07-13T14:10:15;2.78;;;1.10;;
43650;SDS011;29247;50.944;5.382;2023-07-13T14:12:47;1.17;;;0.95;;
43650;SDS011;29247;50.944;5.382;2023-07-13T14:17:52;4.72;;;0.98;;
43650;SDS011;29247;50.944;5.382;2023-07-13T14:20:19;1.95;;;1.10;;
43650;SDS011;29247;50.944;5.382;2023-07-13T14:22:47;1.98;;;0.93;;
43650;SDS011;29247;50.944;5.382;2023-07-13T14:25:15;1.23;;;0.88;;
43650;SDS011;29247;50.944;5.382;2023-07-13T14:30:19;5.47;;;1.30;;
43650;SDS011;29247;50.944;5.382;2023-07-13T14:32:46;4.20;;;1.10;;
43650;SDS011;29247;50.944;5.382;2023-07-13T14:35:14;3.15;;;1.42;;
43650;SDS011;29247;50.944;5.382;2023-07-13T14:37:45;2.75;;;1.00;;
43650;SDS011;29247;50.944;5.382;2023-07-13T14:43:02;3.83;;;1.20;;
43650;SDS011;29247;50.944;5.382;2023-07-13T14:45:27;3.85;;;1.63;;
43650;SDS011;29247;50.944;5.382;2023-07-13T14:47:55;6.50;;;1.20;;
43650;SDS011;29247;50.944;5.382;2023-07-13T14:50:24;1.92;;;1.00;;
43650;SDS011;29247;50.944;5.382;2023-07-13T14:52:57;2.63;;;1.10;;
43650;SDS011;29247;50.944;5.382;2023-07-13T14:55:23;2.78;;;1.20;;
43650;SDS011;29247;50.944;5.382;2023-07-13T14:57:51;2.30;;;1.20;;
43650;SDS011;29247;50.944;5.382;2023-07-13T15:00:20;1.65;;;1.10;;
43650;SDS011;29247;50.944;5.382;2023-07-13T15:02:50;1.30;;;0.90;;
43650;SDS011;29247;50.944;5.382;2023-07-13T15:05:23;5.43;;;1.23;;
43650;SDS011;29247;50.944;5.382;2023-07-13T15:07:56;3.75;;;1.02;;
43650;SDS011;29247;50.944;5.382;2023-07-13T15:10:26;2.45;;;1.10;;
43650;SDS011;29247;50.944;5.382;2023-07-13T15:13:00;2.20;;;1.02;;
43650;SDS011;29247;50.944;5.382;2023-07-13T15:15:47;2.90;;;1.00;;
43650;SDS011;29247;50.944;5.382;2023-07-13T15:18:19;2.63;;;1.00;;
43650;SDS011;29247;50.944;5.382;2023-07-13T15:23:16;1.33;;;0.93;;
43650;SDS011;29247;50.944;5.382;2023-07-13T15:25:44;3.40;;;1.13;;
43650;SDS011;29247;50.944;5.382;2023-07-13T15:28:11;2.42;;;0.90;;
43650;SDS011;29247;50.944;5.382;2023-07-13T15:30:43;1.30;;;0.88;;
43650;SDS011;29247;50.944;5.382;2023-07-13T15:33:25;1.98;;;0.95;;
43650;SDS011;29247;50.944;5.382;2023-07-13T15:35:53;1.83;;;0.95;;
43650;SDS011;29247;50.944;5.382;2023-07-13T15:40:47;2.55;;;1.05;;
43650;SDS011;29247;50.944;5.382;2023-07-13T15:43:16;1.67;;;0.90;;
43650;SDS011;29247;50.944;5.382;2023-07-13T15:45:42;4.30;;;1.05;;
43650;SDS011;29247;50.944;5.382;2023-07-13T15:48:20;3.28;;;1.25;;
43650;SDS011;29247;50.944;5.382;2023-07-13T15:50:51;3.70;;;1.13;;
43650;SDS011;29247;50.944;5.382;2023-07-13T15:53:26;1.83;;;1.13;;
43650;SDS011;29247;50.944;5.382;2023-07-13T15:55:58;5.55;;;1.10;;
43650;SDS011;29247;50.944;5.382;2023-07-13T15:58:24;1.40;;;0.90;;
43650;SDS011;29247;50.944;5.382;2023-07-13T16:00:55;2.67;;;1.00;;
43650;SDS011;29247;50.944;5.382;2023-07-13T16:05:49;2.55;;;0.95;;
43650;SDS011;29247;50.944;5.382;2023-07-13T16:08:26;1.60;;;1.00;;
43650;SDS011;29247;50.944;5.382;2023-07-13T16:10:55;1.88;;;0.90;;
43650;SDS011;29247;50.944;5.382;2023-07-13T16:13:24;3.50;;;0.90;;
43650;SDS011;29247;50.944;5.382;2023-07-13T16:15:50;2.60;;;1.45;;
43650;SDS011;29247;50.944;5.382;2023-07-13T16:18:17;2.92;;;0.98;;